sensor_id;sensor_type;location;lat;lon;timestamp;temperature;humidity
71096;DHT22;58753;49.440;11.126;2024-02-23T00:01:44;8.91;85.14
71096;DHT22;58753;49.440;11.126;2024-02-23T00:04:10;8.85;84.70
71096;DHT22;58753;49.440;11.126;2024-02-23T00:06:35;8.85;84.35
71096;DHT22;58753;49.440;11.126;2024-02-23T00:09:01;8.87;84.36
71096;DHT22;58753;49.440;11.126;2024-02-23T00:11:26;8.89;84.50
71096;DHT22;58753;49.440;11.126;2024-02-23T00:13:53;8.87;84.00
71096;DHT22;58753;49.440;11.126;2024-02-23T00:16:19;8.87;83.91
71096;DHT22;58753;49.440;11.126;2024-02-23T00:18:44;8.85;83.91
71096;DHT22;58753;49.440;11.126;2024-02-23T00:21:10;8.80;83.68
71096;DHT22;58753;49.440;11.126;2024-02-23T00:23:35;8.77;83.00
71096;DHT22;58753;49.440;11.126;2024-02-23T00:26:01;8.74;82.80
71096;DHT22;58753;49.440;11.126;2024-02-23T00:28:27;8.68;82.69
71096;DHT22;58753;49.440;11.126;2024-02-23T00:30:52;8.66;82.53
71096;DHT22;58753;49.440;11.126;2024-02-23T00:33:18;8.66;82.46
71096;DHT22;58753;49.440;11.126;2024-02-23T00:35:43;8.66;82.10
71096;DHT22;58753;49.440;11.126;2024-02-23T00:38:09;8.61;81.14
71096;DHT22;58753;49.440;11.126;2024-02-23T00:40:34;8.60;79.92
71096;DHT22;58753;49.440;11.126;2024-02-23T00:43:00;8.59;79.19
71096;DHT22;58753;49.440;11.126;2024-02-23T00:45:26;8.53;78.75
71096;DHT22;58753;49.440;11.126;2024-02-23T00:47:51;8.47;78.58
71096;DHT22;58753;49.440;11.126;2024-02-23T00:50:17;8.40;78.24
71096;DHT22;58753;49.440;11.126;2024-02-23T00:52:42;8.42;77.84
71096;DHT22;58753;49.440;11.126;2024-02-23T00:55:08;8.34;77.49
71096;DHT22;58753;49.440;11.126;2024-02-23T00:57:34;8.33;77.07
71096;DHT22;58753;49.440;11.126;2024-02-23T01:00:01;8.30;75.65
71096;DHT22;58753;49.440;11.126;2024-02-23T01:02:28;8.28;75.09
71096;DHT22;58753;49.440;11.126;2024-02-23T01:04:53;8.19;75.15
71096;DHT22;58753;49.440;11.126;2024-02-23T01:07:24;8.12;75.57
71096;DHT22;58753;49.440;11.126;2024-02-23T01:09:49;8.01;74.62
71096;DHT22;58753;49.440;11.126;2024-02-23T01:12:15;7.96;74.73
71096;DHT22;58753;49.440;11.126;2024-02-23T01:14:40;7.93;74.74
71096;DHT22;58753;49.440;11.126;2024-02-23T01:17:06;7.89;74.81
71096;DHT22;58753;49.440;11.126;2024-02-23T01:19:31;7.81;74.36
71096;DHT22;58753;49.440;11.126;2024-02-23T01:21:57;7.74;74.26
71096;DHT22;58753;49.440;11.126;2024-02-23T01:24:26;7.68;74.27
71096;DHT22;58753;49.440;11.126;2024-02-23T01:26:57;7.67;74.46
71096;DHT22;58753;49.440;11.126;2024-02-23T01:29:23;7.65;74.90
71096;DHT22;58753;49.440;11.126;2024-02-23T01:31:49;7.61;74.39
71096;DHT22;58753;49.440;11.126;2024-02-23T01:34:14;7.58;74.53
71096;DHT22;58753;49.440;11.126;2024-02-23T01:36:40;7.55;73.97
71096;DHT22;58753;49.440;11.126;2024-02-23T01:39:05;7.50;73.75
71096;DHT22;58753;49.440;11.126;2024-02-23T01:41:32;7.51;74.90
71096;DHT22;58753;49.440;11.126;2024-02-23T01:43:57;7.46;74.04
71096;DHT22;58753;49.440;11.126;2024-02-23T01:46:23;7.40;74.63
71096;DHT22;58753;49.440;11.126;2024-02-23T01:48:48;7.35;74.87
71096;DHT22;58753;49.440;11.126;2024-02-23T01:51:14;7.31;75.51
71096;DHT22;58753;49.440;11.126;2024-02-23T01:53:40;7.31;75.31
71096;DHT22;58753;49.440;11.126;2024-02-23T01:56:06;7.26;75.73
71096;DHT22;58753;49.440;11.126;2024-02-23T01:58:33;7.23;75.68
71096;DHT22;58753;49.440;11.126;2024-02-23T02:01:00;7.17;75.68
71096;DHT22;58753;49.440;11.126;2024-02-23T02:03:26;7.10;76.13
71096;DHT22;58753;49.440;11.126;2024-02-23T02:05:52;7.07;76.47
71096;DHT22;58753;49.440;11.126;2024-02-23T02:08:19;7.04;76.36
71096;DHT22;58753;49.440;11.126;2024-02-23T02:10:45;6.99;76.59
71096;DHT22;58753;49.440;11.126;2024-02-23T02:13:11;6.97;77.43
71096;DHT22;58753;49.440;11.126;2024-02-23T02:15:37;6.97;77.37
71096;DHT22;58753;49.440;11.126;2024-02-23T02:18:03;6.92;77.71
71096;DHT22;58753;49.440;11.126;2024-02-23T02:20:32;6.89;77.75
71096;DHT22;58753;49.440;11.126;2024-02-23T02:22:58;6.90;78.05
71096;DHT22;58753;49.440;11.126;2024-02-23T02:25:23;6.89;77.94
71096;DHT22;58753;49.440;11.126;2024-02-23T02:27:48;6.89;78.84
71096;DHT22;58753;49.440;11.126;2024-02-23T02:30:14;6.87;77.89
71096;DHT22;58753;49.440;11.126;2024-02-23T02:32:40;6.83;77.91
71096;DHT22;58753;49.440;11.126;2024-02-23T02:35:05;6.85;79.26
71096;DHT22;58753;49.440;11.126;2024-02-23T02:37:31;6.79;77.94
71096;DHT22;58753;49.440;11.126;2024-02-23T02:39:56;6.77;78.35
71096;DHT22;58753;49.440;11.126;2024-02-23T02:42:21;6.75;78.68
71096;DHT22;58753;49.440;11.126;2024-02-23T02:44:47;6.73;78.69
71096;DHT22;58753;49.440;11.126;2024-02-23T02:47:12;6.71;78.39
71096;DHT22;58753;49.440;11.126;2024-02-23T02:49:39;6.62;78.61
71096;DHT22;58753;49.440;11.126;2024-02-23T02:52:05;6.63;78.73
71096;DHT22;58753;49.440;11.126;2024-02-23T02:54:31;6.62;79.36
71096;DHT22;58753;49.440;11.126;2024-02-23T02:56:57;6.66;78.83
71096;DHT22;58753;49.440;11.126;2024-02-23T02:59:23;6.59;78.41
71096;DHT22;58753;49.440;11.126;2024-02-23T03:01:48;6.55;78.84
71096;DHT22;58753;49.440;11.126;2024-02-23T03:04:14;6.59;79.04
71096;DHT22;58753;49.440;11.126;2024-02-23T03:06:40;6.53;78.42
71096;DHT22;58753;49.440;11.126;2024-02-23T03:09:05;6.49;78.35
71096;DHT22;58753;49.440;11.126;2024-02-23T03:11:32;6.52;78.94
71096;DHT22;58753;49.440;11.126;2024-02-23T03:13:57;6.45;78.42
71096;DHT22;58753;49.440;11.126;2024-02-23T03:16:23;6.42;78.04
71096;DHT22;58753;49.440;11.126;2024-02-23T03:18:51;6.41;78.24
71096;DHT22;58753;49.440;11.126;2024-02-23T03:21:17;6.41;77.86
71096;DHT22;58753;49.440;11.126;2024-02-23T03:23:42;6.38;77.26
71096;DHT22;58753;49.440;11.126;2024-02-23T03:26:08;6.38;77.25
71096;DHT22;58753;49.440;11.126;2024-02-23T03:28:33;6.39;77.10
71096;DHT22;58753;49.440;11.126;2024-02-23T03:31:00;6.39;77.09
71096;DHT22;58753;49.440;11.126;2024-02-23T03:33:25;6.44;76.94
71096;DHT22;58753;49.440;11.126;2024-02-23T03:35:51;6.45;77.43
71096;DHT22;58753;49.440;11.126;2024-02-23T03:38:16;6.46;77.58
71096;DHT22;58753;49.440;11.126;2024-02-23T03:40:41;6.44;77.29
71096;DHT22;58753;49.440;11.126;2024-02-23T03:43:07;6.42;77.03
71096;DHT22;58753;49.440;11.126;2024-02-23T03:45:33;6.42;77.08
71096;DHT22;58753;49.440;11.126;2024-02-23T03:47:59;6.39;76.94
71096;DHT22;58753;49.440;11.126;2024-02-23T03:50:24;6.34;76.65
71096;DHT22;58753;49.440;11.126;2024-02-23T03:52:50;6.31;76.80
71096;DHT22;58753;49.440;11.126;2024-02-23T03:55:15;6.32;77.12
71096;DHT22;58753;49.440;11.126;2024-02-23T03:57:41;6.32;77.08
71096;DHT22;58753;49.440;11.126;2024-02-23T04:00:07;6.31;77.19
71096;DHT22;58753;49.440;11.126;2024-02-23T04:02:33;6.24;76.80
71096;DHT22;58753;49.440;11.126;2024-02-23T04:04:59;6.18;76.96
71096;DHT22;58753;49.440;11.126;2024-02-23T04:07:24;6.15;76.69
71096;DHT22;58753;49.440;11.126;2024-02-23T04:09:49;6.10;76.80
71096;DHT22;58753;49.440;11.126;2024-02-23T04:12:21;6.18;76.81
71096;DHT22;58753;49.440;11.126;2024-02-23T04:14:46;6.12;77.04
71096;DHT22;58753;49.440;11.126;2024-02-23T04:17:12;6.10;77.06
71096;DHT22;58753;49.440;11.126;2024-02-23T04:19:37;6.10;76.90
71096;DHT22;58753;49.440;11.126;2024-02-23T04:22:05;6.05;77.30
71096;DHT22;58753;49.440;11.126;2024-02-23T04:24:33;6.07;77.08
71096;DHT22;58753;49.440;11.126;2024-02-23T04:26:59;6.08;77.42
71096;DHT22;58753;49.440;11.126;2024-02-23T04:29:25;6.10;77.55
71096;DHT22;58753;49.440;11.126;2024-02-23T04:31:50;6.08;77.15
71096;DHT22;58753;49.440;11.126;2024-02-23T04:34:16;6.10;77.32
71096;DHT22;58753;49.440;11.126;2024-02-23T04:36:41;6.07;76.80
71096;DHT22;58753;49.440;11.126;2024-02-23T04:39:07;6.02;77.12
71096;DHT22;58753;49.440;11.126;2024-02-23T04:41:33;6.04;76.89
71096;DHT22;58753;49.440;11.126;2024-02-23T04:43:58;6.00;76.86
71096;DHT22;58753;49.440;11.126;2024-02-23T04:46:26;5.97;77.02
71096;DHT22;58753;49.440;11.126;2024-02-23T04:48:51;5.94;76.44
71096;DHT22;58753;49.440;11.126;2024-02-23T04:51:17;5.91;76.68
71096;DHT22;58753;49.440;11.126;2024-02-23T04:53:42;5.93;76.59
71096;DHT22;58753;49.440;11.126;2024-02-23T04:56:08;5.90;76.39
71096;DHT22;58753;49.440;11.126;2024-02-23T04:58:34;5.89;75.81
71096;DHT22;58753;49.440;11.126;2024-02-23T05:01:00;5.86;75.65
71096;DHT22;58753;49.440;11.126;2024-02-23T05:03:25;5.84;76.17
71096;DHT22;58753;49.440;11.126;2024-02-23T05:05:51;5.81;75.47
71096;DHT22;58753;49.440;11.126;2024-02-23T05:08:22;5.75;75.32
71096;DHT22;58753;49.440;11.126;2024-02-23T05:10:50;5.78;75.18
71096;DHT22;58753;49.440;11.126;2024-02-23T05:13:16;5.75;75.24
71096;DHT22;58753;49.440;11.126;2024-02-23T05:15:42;5.75;75.62
71096;DHT22;58753;49.440;11.126;2024-02-23T05:18:07;5.78;76.60
71096;DHT22;58753;49.440;11.126;2024-02-23T05:20:33;5.83;76.44
71096;DHT22;58753;49.440;11.126;2024-02-23T05:22:58;5.77;75.53
71096;DHT22;58753;49.440;11.126;2024-02-23T05:25:24;5.70;75.51
71096;DHT22;58753;49.440;11.126;2024-02-23T05:27:51;5.69;75.70
71096;DHT22;58753;49.440;11.126;2024-02-23T05:30:16;5.67;75.67
71096;DHT22;58753;49.440;11.126;2024-02-23T05:32:42;5.61;75.66
71096;DHT22;58753;49.440;11.126;2024-02-23T05:35:07;5.57;75.35
71096;DHT22;58753;49.440;11.126;2024-02-23T05:37:34;5.59;75.92
71096;DHT22;58753;49.440;11.126;2024-02-23T05:40:00;5.60;75.97
71096;DHT22;58753;49.440;11.126;2024-02-23T05:42:28;5.60;75.70
71096;DHT22;58753;49.440;11.126;2024-02-23T05:44:54;5.57;76.18
71096;DHT22;58753;49.440;11.126;2024-02-23T05:47:19;5.56;75.68
71096;DHT22;58753;49.440;11.126;2024-02-23T05:49:46;5.54;75.60
71096;DHT22;58753;49.440;11.126;2024-02-23T05:52:11;5.53;75.72
71096;DHT22;58753;49.440;11.126;2024-02-23T05:54:37;5.50;75.88
71096;DHT22;58753;49.440;11.126;2024-02-23T05:57:02;5.51;76.25
71096;DHT22;58753;49.440;11.126;2024-02-23T05:59:28;5.51;76.84
71096;DHT22;58753;49.440;11.126;2024-02-23T06:01:54;5.53;76.65
71096;DHT22;58753;49.440;11.126;2024-02-23T06:04:24;5.51;76.35
71096;DHT22;58753;49.440;11.126;2024-02-23T06:06:50;5.51;76.41
71096;DHT22;58753;49.440;11.126;2024-02-23T06:09:16;5.50;76.67
71096;DHT22;58753;49.440;11.126;2024-02-23T06:11:41;5.50;76.29
71096;DHT22;58753;49.440;11.126;2024-02-23T06:14:07;5.49;76.63
71096;DHT22;58753;49.440;11.126;2024-02-23T06:16:33;5.50;76.23
71096;DHT22;58753;49.440;11.126;2024-02-23T06:18:59;5.50;77.02
71096;DHT22;58753;49.440;11.126;2024-02-23T06:21:24;5.51;77.28
71096;DHT22;58753;49.440;11.126;2024-02-23T06:23:50;5.51;76.76
71096;DHT22;58753;49.440;11.126;2024-02-23T06:26:15;5.53;77.33
71096;DHT22;58753;49.440;11.126;2024-02-23T06:28:41;5.51;76.87
71096;DHT22;58753;49.440;11.126;2024-02-23T06:31:07;5.47;77.03
71096;DHT22;58753;49.440;11.126;2024-02-23T06:33:33;5.49;76.97
71096;DHT22;58753;49.440;11.126;2024-02-23T06:35:59;5.44;77.03
71096;DHT22;58753;49.440;11.126;2024-02-23T06:38:24;5.44;77.36
71096;DHT22;58753;49.440;11.126;2024-02-23T06:40:50;5.42;77.01
71096;DHT22;58753;49.440;11.126;2024-02-23T06:43:16;5.42;77.30
71096;DHT22;58753;49.440;11.126;2024-02-23T06:45:42;5.40;77.33
71096;DHT22;58753;49.440;11.126;2024-02-23T06:48:07;5.37;77.70
71096;DHT22;58753;49.440;11.126;2024-02-23T06:50:33;5.40;78.04
71096;DHT22;58753;49.440;11.126;2024-02-23T06:52:58;5.39;77.77
71096;DHT22;58753;49.440;11.126;2024-02-23T06:55:24;5.39;78.04
71096;DHT22;58753;49.440;11.126;2024-02-23T06:57:49;5.37;78.18
71096;DHT22;58753;49.440;11.126;2024-02-23T07:00:15;5.40;78.49
71096;DHT22;58753;49.440;11.126;2024-02-23T07:02:40;5.36;78.13
71096;DHT22;58753;49.440;11.126;2024-02-23T07:05:07;5.33;78.67
71096;DHT22;58753;49.440;11.126;2024-02-23T07:07:32;5.32;78.71
71096;DHT22;58753;49.440;11.126;2024-02-23T07:09:59;5.32;78.98
71096;DHT22;58753;49.440;11.126;2024-02-23T07:12:27;5.33;79.28
71096;DHT22;58753;49.440;11.126;2024-02-23T07:14:54;5.33;79.12
71096;DHT22;58753;49.440;11.126;2024-02-23T07:17:20;5.39;79.66
71096;DHT22;58753;49.440;11.126;2024-02-23T07:19:45;5.40;79.51
71096;DHT22;58753;49.440;11.126;2024-02-23T07:22:11;5.43;79.68
71096;DHT22;58753;49.440;11.126;2024-02-23T07:24:40;5.46;79.65
71096;DHT22;58753;49.440;11.126;2024-02-23T07:27:06;5.47;79.78
71096;DHT22;58753;49.440;11.126;2024-02-23T07:29:31;5.50;79.75
71096;DHT22;58753;49.440;11.126;2024-02-23T07:31:57;5.53;79.61
71096;DHT22;58753;49.440;11.126;2024-02-23T07:34:22;5.56;79.79
71096;DHT22;58753;49.440;11.126;2024-02-23T07:36:51;5.56;79.55
71096;DHT22;58753;49.440;11.126;2024-02-23T07:39:17;5.57;79.78
71096;DHT22;58753;49.440;11.126;2024-02-23T07:41:42;5.63;79.84
71096;DHT22;58753;49.440;11.126;2024-02-23T07:44:07;5.63;80.12
71096;DHT22;58753;49.440;11.126;2024-02-23T07:46:33;5.67;79.22
71096;DHT22;58753;49.440;11.126;2024-02-23T07:48:59;5.66;79.47
71096;DHT22;58753;49.440;11.126;2024-02-23T07:51:24;5.70;79.85
71096;DHT22;58753;49.440;11.126;2024-02-23T07:53:49;5.69;79.43
71096;DHT22;58753;49.440;11.126;2024-02-23T07:56:15;5.74;79.48
71096;DHT22;58753;49.440;11.126;2024-02-23T07:58:40;5.73;79.39
71096;DHT22;58753;49.440;11.126;2024-02-23T08:01:06;5.75;79.11
71096;DHT22;58753;49.440;11.126;2024-02-23T08:03:31;5.78;79.22
71096;DHT22;58753;49.440;11.126;2024-02-23T08:05:56;5.80;79.17
71096;DHT22;58753;49.440;11.126;2024-02-23T08:08:22;5.80;79.20
71096;DHT22;58753;49.440;11.126;2024-02-23T08:10:49;5.83;79.35
71096;DHT22;58753;49.440;11.126;2024-02-23T08:13:14;5.80;78.78
71096;DHT22;58753;49.440;11.126;2024-02-23T08:15:40;5.77;78.72
71096;DHT22;58753;49.440;11.126;2024-02-23T08:18:06;5.74;78.51
71096;DHT22;58753;49.440;11.126;2024-02-23T08:20:31;5.84;78.88
71096;DHT22;58753;49.440;11.126;2024-02-23T08:22:56;5.97;78.98
71096;DHT22;58753;49.440;11.126;2024-02-23T08:25:22;6.07;78.68
71096;DHT22;58753;49.440;11.126;2024-02-23T08:27:47;6.12;78.27
71096;DHT22;58753;49.440;11.126;2024-02-23T08:30:14;6.18;78.25
71096;DHT22;58753;49.440;11.126;2024-02-23T08:32:40;6.21;77.90
71096;DHT22;58753;49.440;11.126;2024-02-23T08:35:06;6.25;77.72
71096;DHT22;58753;49.440;11.126;2024-02-23T08:37:32;6.26;77.66
71096;DHT22;58753;49.440;11.126;2024-02-23T08:39:57;6.32;77.81
71096;DHT22;58753;49.440;11.126;2024-02-23T08:42:23;6.34;77.27
71096;DHT22;58753;49.440;11.126;2024-02-23T08:44:48;6.38;77.49
71096;DHT22;58753;49.440;11.126;2024-02-23T08:47:14;6.42;77.02
71096;DHT22;58753;49.440;11.126;2024-02-23T08:49:39;6.45;76.82
71096;DHT22;58753;49.440;11.126;2024-02-23T08:52:05;6.46;76.70
71096;DHT22;58753;49.440;11.126;2024-02-23T08:54:30;6.48;76.33
71096;DHT22;58753;49.440;11.126;2024-02-23T08:56:56;6.49;76.16
71096;DHT22;58753;49.440;11.126;2024-02-23T08:59:21;6.48;76.17
71096;DHT22;58753;49.440;11.126;2024-02-23T09:01:47;6.49;75.72
71096;DHT22;58753;49.440;11.126;2024-02-23T09:04:13;6.49;75.67
71096;DHT22;58753;49.440;11.126;2024-02-23T09:06:38;6.52;75.47
71096;DHT22;58753;49.440;11.126;2024-02-23T09:09:04;6.53;75.55
71096;DHT22;58753;49.440;11.126;2024-02-23T09:11:29;6.52;75.25
71096;DHT22;58753;49.440;11.126;2024-02-23T09:13:55;6.56;75.26
71096;DHT22;58753;49.440;11.126;2024-02-23T09:16:20;6.56;74.84
71096;DHT22;58753;49.440;11.126;2024-02-23T09:18:48;6.61;74.56
71096;DHT22;58753;49.440;11.126;2024-02-23T09:21:14;6.65;74.08
71096;DHT22;58753;49.440;11.126;2024-02-23T09:23:39;6.68;73.55
71096;DHT22;58753;49.440;11.126;2024-02-23T09:26:09;6.63;71.82
71096;DHT22;58753;49.440;11.126;2024-02-23T09:28:36;6.59;71.45
71096;DHT22;58753;49.440;11.126;2024-02-23T09:31:01;6.52;71.15
71096;DHT22;58753;49.440;11.126;2024-02-23T09:33:28;6.50;70.86
71096;DHT22;58753;49.440;11.126;2024-02-23T09:35:54;6.46;70.41
71096;DHT22;58753;49.440;11.126;2024-02-23T09:38:19;6.50;70.34
71096;DHT22;58753;49.440;11.126;2024-02-23T09:40:45;6.55;69.87
71096;DHT22;58753;49.440;11.126;2024-02-23T09:43:12;6.62;69.75
71096;DHT22;58753;49.440;11.126;2024-02-23T09:45:38;6.66;69.17
71096;DHT22;58753;49.440;11.126;2024-02-23T09:48:03;6.68;68.91
71096;DHT22;58753;49.440;11.126;2024-02-23T09:50:30;6.73;69.16
71096;DHT22;58753;49.440;11.126;2024-02-23T09:52:58;6.75;68.62
71096;DHT22;58753;49.440;11.126;2024-02-23T09:55:24;6.77;68.23
71096;DHT22;58753;49.440;11.126;2024-02-23T09:57:52;6.82;68.02
71096;DHT22;58753;49.440;11.126;2024-02-23T10:00:23;6.85;67.29
71096;DHT22;58753;49.440;11.126;2024-02-23T10:02:48;6.77;66.93
71096;DHT22;58753;49.440;11.126;2024-02-23T10:05:15;6.79;67.03
71096;DHT22;58753;49.440;11.126;2024-02-23T10:07:42;6.77;67.14
71096;DHT22;58753;49.440;11.126;2024-02-23T10:10:09;6.80;67.03
71096;DHT22;58753;49.440;11.126;2024-02-23T10:12:37;6.85;66.47
71096;DHT22;58753;49.440;11.126;2024-02-23T10:15:03;6.85;66.29
71096;DHT22;58753;49.440;11.126;2024-02-23T10:17:32;6.86;66.09
71096;DHT22;58753;49.440;11.126;2024-02-23T10:19:58;6.90;65.98
71096;DHT22;58753;49.440;11.126;2024-02-23T10:22:24;6.96;65.75
71096;DHT22;58753;49.440;11.126;2024-02-23T10:24:50;6.93;65.57
71096;DHT22;58753;49.440;11.126;2024-02-23T10:27:16;6.95;65.52
71096;DHT22;58753;49.440;11.126;2024-02-23T10:29:42;6.93;65.43
71096;DHT22;58753;49.440;11.126;2024-02-23T10:32:10;6.95;65.41
71096;DHT22;58753;49.440;11.126;2024-02-23T10:34:42;7.00;65.50
71096;DHT22;58753;49.440;11.126;2024-02-23T10:37:08;7.00;65.68
71096;DHT22;58753;49.440;11.126;2024-02-23T10:39:36;7.07;65.46
71096;DHT22;58753;49.440;11.126;2024-02-23T10:42:03;7.03;64.12
71096;DHT22;58753;49.440;11.126;2024-02-23T10:44:30;7.06;64.37
71096;DHT22;58753;49.440;11.126;2024-02-23T10:46:55;7.08;64.56
71096;DHT22;58753;49.440;11.126;2024-02-23T10:49:23;7.06;63.78
71096;DHT22;58753;49.440;11.126;2024-02-23T10:51:51;7.06;63.81
71096;DHT22;58753;49.440;11.126;2024-02-23T10:54:18;7.06;63.65
71096;DHT22;58753;49.440;11.126;2024-02-23T10:56:52;7.10;63.73
71096;DHT22;58753;49.440;11.126;2024-02-23T10:59:21;7.11;63.34
71096;DHT22;58753;49.440;11.126;2024-02-23T11:01:57;7.08;62.57
71096;DHT22;58753;49.440;11.126;2024-02-23T11:04:25;7.01;62.11
71096;DHT22;58753;49.440;11.126;2024-02-23T11:06:52;7.03;62.46
71096;DHT22;58753;49.440;11.126;2024-02-23T11:09:21;6.99;61.87
71096;DHT22;58753;49.440;11.126;2024-02-23T11:14:32;7.10;61.79
71096;DHT22;58753;49.440;11.126;2024-02-23T11:16:58;7.16;61.70
71096;DHT22;58753;49.440;11.126;2024-02-23T11:19:32;7.18;61.57
71096;DHT22;58753;49.440;11.126;2024-02-23T11:21:58;7.20;61.88
71096;DHT22;58753;49.440;11.126;2024-02-23T11:24:28;7.23;61.91
71096;DHT22;58753;49.440;11.126;2024-02-23T11:27:01;7.26;61.55
71096;DHT22;58753;49.440;11.126;2024-02-23T11:29:33;7.34;62.08
71096;DHT22;58753;49.440;11.126;2024-02-23T11:32:00;7.37;61.69
71096;DHT22;58753;49.440;11.126;2024-02-23T11:34:29;7.35;62.03
71096;DHT22;58753;49.440;11.126;2024-02-23T11:36:55;7.38;62.24
71096;DHT22;58753;49.440;11.126;2024-02-23T11:39:22;7.43;62.65
71096;DHT22;58753;49.440;11.126;2024-02-23T11:41:50;7.50;62.97
71096;DHT22;58753;49.440;11.126;2024-02-23T11:44:16;7.55;62.89
71096;DHT22;58753;49.440;11.126;2024-02-23T11:46:46;7.57;63.17
71096;DHT22;58753;49.440;11.126;2024-02-23T11:49:13;7.58;63.47
71096;DHT22;58753;49.440;11.126;2024-02-23T11:51:39;7.60;63.48
71096;DHT22;58753;49.440;11.126;2024-02-23T11:54:05;7.60;63.45
71096;DHT22;58753;49.440;11.126;2024-02-23T11:56:31;7.57;63.53
71096;DHT22;58753;49.440;11.126;2024-02-23T11:58:56;7.52;63.71
71096;DHT22;58753;49.440;11.126;2024-02-23T12:01:22;7.48;63.72
71096;DHT22;58753;49.440;11.126;2024-02-23T12:03:48;7.46;63.97
71096;DHT22;58753;49.440;11.126;2024-02-23T12:06:15;7.43;64.48
71096;DHT22;58753;49.440;11.126;2024-02-23T12:08:43;7.46;64.83
71096;DHT22;58753;49.440;11.126;2024-02-23T12:11:11;7.47;64.83
71096;DHT22;58753;49.440;11.126;2024-02-23T12:13:37;7.51;65.19
71096;DHT22;58753;49.440;11.126;2024-02-23T12:16:03;7.51;65.22
71096;DHT22;58753;49.440;11.126;2024-02-23T12:18:29;7.50;65.42
71096;DHT22;58753;49.440;11.126;2024-02-23T12:21:04;7.47;65.83
71096;DHT22;58753;49.440;11.126;2024-02-23T12:23:44;7.48;66.09
71096;DHT22;58753;49.440;11.126;2024-02-23T12:26:11;7.55;66.40
71096;DHT22;58753;49.440;11.126;2024-02-23T12:28:38;7.55;66.53
71096;DHT22;58753;49.440;11.126;2024-02-23T12:31:04;7.57;66.81
71096;DHT22;58753;49.440;11.126;2024-02-23T12:33:35;7.60;67.08
71096;DHT22;58753;49.440;11.126;2024-02-23T12:36:02;7.64;67.40
71096;DHT22;58753;49.440;11.126;2024-02-23T12:38:28;7.60;67.62
71096;DHT22;58753;49.440;11.126;2024-02-23T12:40:54;7.60;67.68
71096;DHT22;58753;49.440;11.126;2024-02-23T12:43:20;7.61;67.92
71096;DHT22;58753;49.440;11.126;2024-02-23T12:45:53;7.61;68.24
71096;DHT22;58753;49.440;11.126;2024-02-23T12:48:19;7.61;68.19
71096;DHT22;58753;49.440;11.126;2024-02-23T12:50:49;7.62;68.42
71096;DHT22;58753;49.440;11.126;2024-02-23T12:53:36;7.62;68.35
71096;DHT22;58753;49.440;11.126;2024-02-23T12:56:12;7.67;67.62
71096;DHT22;58753;49.440;11.126;2024-02-23T12:58:42;7.68;67.44
71096;DHT22;58753;49.440;11.126;2024-02-23T13:01:09;7.67;66.82
71096;DHT22;58753;49.440;11.126;2024-02-23T13:03:36;7.64;66.40
71096;DHT22;58753;49.440;11.126;2024-02-23T13:06:03;7.64;65.90
71096;DHT22;58753;49.440;11.126;2024-02-23T13:08:29;7.62;65.20
71096;DHT22;58753;49.440;11.126;2024-02-23T13:10:55;7.65;64.70
71096;DHT22;58753;49.440;11.126;2024-02-23T13:13:21;7.67;64.16
71096;DHT22;58753;49.440;11.126;2024-02-23T13:15:48;7.71;64.40
71096;DHT22;58753;49.440;11.126;2024-02-23T13:18:14;7.71;64.10
71096;DHT22;58753;49.440;11.126;2024-02-23T13:20:40;7.77;64.19
71096;DHT22;58753;49.440;11.126;2024-02-23T13:23:10;7.74;64.18
71096;DHT22;58753;49.440;11.126;2024-02-23T13:25:37;7.77;63.62
71096;DHT22;58753;49.440;11.126;2024-02-23T13:28:03;7.72;63.64
71096;DHT22;58753;49.440;11.126;2024-02-23T13:30:29;7.74;63.78
71096;DHT22;58753;49.440;11.126;2024-02-23T13:32:55;7.74;63.54
71096;DHT22;58753;49.440;11.126;2024-02-23T13:35:20;7.70;62.71
71096;DHT22;58753;49.440;11.126;2024-02-23T13:37:46;7.64;62.70
71096;DHT22;58753;49.440;11.126;2024-02-23T13:40:11;7.61;62.64
71096;DHT22;58753;49.440;11.126;2024-02-23T13:42:37;7.64;62.88
71096;DHT22;58753;49.440;11.126;2024-02-23T13:45:08;7.70;62.96
71096;DHT22;58753;49.440;11.126;2024-02-23T13:47:34;7.71;62.64
71096;DHT22;58753;49.440;11.126;2024-02-23T13:50:00;7.67;62.42
71096;DHT22;58753;49.440;11.126;2024-02-23T13:52:25;7.64;62.14
71096;DHT22;58753;49.440;11.126;2024-02-23T13:54:51;7.62;62.36
71096;DHT22;58753;49.440;11.126;2024-02-23T13:57:17;7.64;61.84
71096;DHT22;58753;49.440;11.126;2024-02-23T13:59:42;7.62;62.00
71096;DHT22;58753;49.440;11.126;2024-02-23T14:02:07;7.58;61.93
71096;DHT22;58753;49.440;11.126;2024-02-23T14:04:33;7.58;62.10
71096;DHT22;58753;49.440;11.126;2024-02-23T14:06:58;7.57;61.70
71096;DHT22;58753;49.440;11.126;2024-02-23T14:09:24;7.57;61.52
71096;DHT22;58753;49.440;11.126;2024-02-23T14:11:49;7.52;61.48
71096;DHT22;58753;49.440;11.126;2024-02-23T14:14:15;7.50;61.62
71096;DHT22;58753;49.440;11.126;2024-02-23T14:16:41;7.48;61.92
71096;DHT22;58753;49.440;11.126;2024-02-23T14:19:07;7.51;62.37
71096;DHT22;58753;49.440;11.126;2024-02-23T14:21:32;7.52;62.41
71096;DHT22;58753;49.440;11.126;2024-02-23T14:23:58;7.54;62.46
71096;DHT22;58753;49.440;11.126;2024-02-23T14:26:23;7.54;62.71
71096;DHT22;58753;49.440;11.126;2024-02-23T14:28:49;7.55;62.75
71096;DHT22;58753;49.440;11.126;2024-02-23T14:31:15;7.58;63.01
71096;DHT22;58753;49.440;11.126;2024-02-23T14:33:40;7.55;63.22
71096;DHT22;58753;49.440;11.126;2024-02-23T14:36:06;7.55;63.16
71096;DHT22;58753;49.440;11.126;2024-02-23T14:38:31;7.52;63.42
71096;DHT22;58753;49.440;11.126;2024-02-23T14:40:57;7.51;63.89
71096;DHT22;58753;49.440;11.126;2024-02-23T14:43:23;7.54;64.27
71096;DHT22;58753;49.440;11.126;2024-02-23T14:45:48;7.54;64.38
71096;DHT22;58753;49.440;11.126;2024-02-23T14:48:16;7.51;64.51
71096;DHT22;58753;49.440;11.126;2024-02-23T14:50:41;7.46;64.69
71096;DHT22;58753;49.440;11.126;2024-02-23T14:53:07;7.46;64.99
71096;DHT22;58753;49.440;11.126;2024-02-23T14:55:33;7.43;65.07
71096;DHT22;58753;49.440;11.126;2024-02-23T14:58:00;7.37;65.08
71096;DHT22;58753;49.440;11.126;2024-02-23T15:00:25;7.32;65.42
71096;DHT22;58753;49.440;11.126;2024-02-23T15:02:51;7.30;65.73
71096;DHT22;58753;49.440;11.126;2024-02-23T15:05:16;7.28;65.67
71096;DHT22;58753;49.440;11.126;2024-02-23T15:07:42;7.23;65.90
71096;DHT22;58753;49.440;11.126;2024-02-23T15:10:08;7.23;66.24
71096;DHT22;58753;49.440;11.126;2024-02-23T15:12:37;7.20;66.43
71096;DHT22;58753;49.440;11.126;2024-02-23T15:15:03;7.21;66.74
71096;DHT22;58753;49.440;11.126;2024-02-23T15:17:29;7.20;66.83
71096;DHT22;58753;49.440;11.126;2024-02-23T15:19:54;7.20;66.89
71096;DHT22;58753;49.440;11.126;2024-02-23T15:22:20;7.18;67.05
71096;DHT22;58753;49.440;11.126;2024-02-23T15:24:45;7.17;67.00
71096;DHT22;58753;49.440;11.126;2024-02-23T15:27:15;7.11;66.64